Time;durP1;ratioP1;P1;durP2;ratioP2;P2;SDS_P1;SDS_P2;PMS_P1;PMS_P2;Temp;Humidity;BMP_temperature;BMP_pressure;BME280_temperature;BME280_humidity;BME280_pressure;Samples;Min_cycle;Max_cycle;Signal;HPM_P1;HPM_P2
2022/09/24 00:01:28;;;;;;;16.02;10.53;;;;;;;7.34;74.72;100406.25;1619301;86;25758;-69
2022/09/24 00:04:01;;;;;;;14.80;11.20;;;;;;;7.29;74.94;100411.16;1612814;87;26251;-69
2022/09/24 00:06:30;;;;;;;16.70;11.88;;;;;;;7.23;74.92;100406.89;1597958;88;25436;-69
2022/09/24 00:08:57;;;;;;;20.15;12.20;;;;;;;7.21;75.27;100407.73;1603604;88;27574;-69
2022/09/24 00:11:27;;;;;;;16.77;12.05;;;;;;;7.18;74.77;100405.05;1626806;87;25613;-69
2022/09/24 00:13:57;;;;;;;18.50;10.88;;;;;;;7.17;74.63;100398.60;1613094;87;25668;-69
2022/09/24 00:16:25;;;;;;;;;;;;;;;7.14;74.97;100399.98;1600144;88;25999;-69
2022/09/24 00:18:53;;;;;;;19.87;10.95;;;;;;;7.11;75.33;100399.20;1587913;88;25637;-69
2022/09/24 00:21:29;;;;;;;16.50;10.75;;;;;;;7.04;75.13;100396.84;1601390;87;27434;-69
2022/09/24 00:24:00;;;;;;;15.28;11.03;;;;;;;7.01;74.75;100401.43;1602969;88;25689;-70
2022/09/24 00:29:17;;;;;;;17.90;10.30;;;;;;;6.93;75.24;100388.62;1606259;87;25641;-68
2022/09/24 00:31:46;;;;;;;17.62;9.48;;;;;;;6.84;75.16;100390.28;1603381;87;25673;-69
2022/09/24 00:34:14;;;;;;;21.50;10.05;;;;;;;6.77;75.12;100391.95;1604378;88;27346;-69
2022/09/24 00:36:41;;;;;;;17.57;9.48;;;;;;;6.72;75.30;100387.95;1604263;87;25609;-69
2022/09/24 00:39:08;;;;;;;18.12;10.05;;;;;;;6.66;75.53;100383.17;1604137;87;25640;-69
2022/09/24 00:41:37;;;;;;;17.48;10.28;;;;;;;6.58;75.73;100378.38;1604278;88;25735;-69
2022/09/24 00:44:47;;;;;;;14.83;9.23;;;;;;;6.52;75.66;100372.77;1603012;87;25681;-69
2022/09/24 00:47:30;;;;;;;14.28;9.43;;;;;;;6.46;75.77;100379.28;1602964;87;27421;-69
2022/09/24 00:50:17;;;;;;;15.32;9.55;;;;;;;6.39;75.88;100381.48;1602285;88;25511;-69
2022/09/24 00:53:06;;;;;;;13.80;9.50;;;;;;;6.35;76.27;100385.24;1588103;87;25804;-69
2022/09/24 00:55:34;;;;;;;16.12;9.43;;;;;;;6.31;76.54;100377.48;1604299;87;27823;-69
2022/09/24 00:58:05;;;;;;;17.25;9.80;;;;;;;6.25;76.70;100378.07;1604532;87;25702;-69
2022/09/24 01:00:33;;;;;;;14.23;9.63;;;;;;;6.21;76.24;100379.69;1604064;87;27315;-69
2022/09/24 01:03:08;;;;;;;15.93;9.05;;;;;;;6.20;75.92;100379.96;1604213;88;25704;-70
2022/09/24 01:05:36;;;;;;;13.53;9.63;;;;;;;6.17;75.73;100380.78;1600827;87;25606;-70
2022/09/24 01:08:05;;;;;;;15.60;9.60;;;;;;;6.15;75.88;100375.44;1604006;88;26231;-70
2022/09/24 01:10:59;;;;;;;15.93;9.10;;;;;;;6.11;76.20;100370.34;1604453;88;25463;-70
2022/09/24 01:13:39;;;;;;;16.20;9.68;;;;;;;6.06;75.93;100374.40;1565082;90;27361;-69
2022/09/24 01:16:08;;;;;;;;;;;;;;;6.01;75.77;100377.11;1564530;90;25920;-69
2022/09/24 01:18:43;;;;;;;13.83;9.15;;;;;;;5.96;76.18;100376.06;1557609;91;25826;-70
2022/09/24 01:21:34;;;;;;;15.08;9.20;;;;;;;5.91;75.78;100372.03;1565050;90;25686;-70
2022/09/24 01:24:21;;;;;;;12.60;8.78;;;;;;;5.89;76.50;100368.00;1565131;90;25863;-69
2022/09/24 01:27:11;;;;;;;16.27;9.48;;;;;;;5.84;76.56;100362.14;1564499;90;27449;-69
2022/09/24 01:29:55;;;;;;;13.22;8.85;;;;;;;5.81;76.33;100362.68;1481054;95;25859;-69
2022/09/24 01:32:36;;;;;;;15.28;9.15;;;;;;;5.78;76.63;100361.34;1481774;95;25811;-69
2022/09/24 01:35:12;;;;;;;12.98;8.45;;;;;;;5.74;76.94;100355.47;1481711;95;26104;-69
2022/09/24 01:37:43;;;;;;;13.50;9.25;;;;;;;5.70;76.60;100358.42;1470016;95;25766;-69
2022/09/24 01:40:11;;;;;;;16.35;9.78;;;;;;;5.68;76.90;100359.24;1481620;95;27446;-69
2022/09/24 01:42:41;;;;;;;15.70;9.50;;;;;;;5.66;76.82;100359.52;1481142;95;25897;-70
2022/09/24 01:45:11;;;;;;;18.25;8.75;;;;;;;5.63;77.24;100354.69;1481095;95;25740;-70
2022/09/24 01:47:40;;;;;;;14.85;9.23;;;;;;;5.60;77.33;100356.57;1481219;95;25841;-70
2022/09/24 01:50:11;;;;;;;17.12;9.20;;;;;;;5.55;77.26;100362.78;1470831;95;25580;-70
2022/09/24 01:52:49;;;;;;;15.05;8.80;;;;;;;5.52;77.39;100363.87;1548473;90;27417;-70
2022/09/24 01:55:20;;;;;;;15.08;8.85;;;;;;;5.49;77.53;100363.86;1515441;92;25862;-70
2022/09/24 01:58:04;;;;;;;16.65;8.63;;;;;;;5.45;77.77;100368.17;1549007;90;25481;-70
2022/09/24 02:00:31;;;;;;;14.60;9.43;;;;;;;5.42;77.57;100363.35;1549963;90;25933;-67
2022/09/24 02:03:08;;;;;;;19.30;9.68;;;;;;;5.39;78.01;100367.37;1549517;90;25826;-69
2022/09/24 02:05:45;;;;;;;15.58;8.98;;;;;;;5.37;77.96;100363.37;1555561;90;27648;-69
2022/09/24 02:08:43;;;;;;;13.40;8.03;;;;;;;5.36;77.88;100365.77;1581003;88;25672;-70
2022/09/24 02:11:14;;;;;;;13.95;8.80;;;;;;;5.33;77.92;100364.45;1594919;88;25858;-69
2022/09/24 02:13:55;;;;;;;19.42;9.30;;;;;;;5.33;78.30;100360.95;1585595;88;25697;-70
2022/09/24 02:16:27;;;;;;;15.25;9.18;;;;;;;5.30;77.83;100368.22;1609957;88;25665;-70
2022/09/24 02:18:59;;;;;;;18.42;10.30;;;;;;;5.27;77.44;100357.48;1621703;86;27332;-70
2022/09/24 02:21:28;;;;;;;17.00;11.25;;;;;;;5.23;77.78;100361.24;1621477;86;26231;-69
2022/09/24 02:24:06;;;;;;;42.70;20.35;;;;;;;5.21;77.85;100359.89;1596996;88;26287;-70
2022/09/24 02:26:33;;;;;;;22.58;12.50;;;;;;;5.17;77.90;100362.86;1628484;86;27283;-70
2022/09/24 02:29:00;;;;;;;15.20;9.30;;;;;;;5.13;78.06;100359.13;1621502;86;25764;-70
2022/09/24 02:31:31;;;;;;;17.75;10.58;;;;;;;5.09;78.12;100360.21;1649156;85;27367;-70
2022/09/24 02:34:20;;;;;;;13.32;8.85;;;;;;;5.08;78.25;100358.59;1654400;85;26757;-70
2022/09/24 02:37:01;;;;;;;14.87;9.75;;;;;;;5.05;77.94;100355.89;1655855;86;26465;-69
2022/09/24 02:39:28;;;;;;;13.72;9.68;;;;;;;5.03;77.61;100350.55;1651610;85;27771;-69
2022/09/24 02:41:56;;;;;;;13.75;8.75;;;;;;;5.01;77.87;100361.55;1654476;85;25472;-69
2022/09/24 02:44:23;;;;;;;12.70;9.55;;;;;;;4.97;77.79;100352.45;1659842;86;27329;-69
2022/09/24 02:46:50;;;;;;;13.93;8.33;;;;;;;4.95;77.92;100353.77;1659742;85;25640;-69
2022/09/24 02:49:17;;;;;;;13.93;8.30;;;;;;;4.91;78.21;100354.85;1659914;85;25554;-70
2022/09/24 02:51:44;;;;;;;16.82;8.50;;;;;;;4.88;78.23;100355.38;1659837;85;26466;-70
2022/09/24 02:54:10;;;;;;;16.52;9.45;;;;;;;4.83;78.09;100353.50;1659872;85;25575;-70
2022/09/24 02:56:38;;;;;;;13.90;8.15;;;;;;;4.81;78.33;100352.18;1659896;85;27306;-70
2022/09/24 02:59:06;;;;;;;14.80;8.10;;;;;;;4.78;78.19;100352.16;1659810;85;25560;-69
2022/09/24 03:01:34;;;;;;;14.38;8.35;;;;;;;4.77;78.59;100351.91;1657463;85;25566;-69
2022/09/24 03:04:01;;;;;;;16.52;8.40;;;;;;;4.74;78.53;100350.31;1658822;85;25602;-69
2022/09/24 03:06:29;;;;;;;12.13;8.33;;;;;;;4.71;78.66;100354.31;1659951;85;25492;-69
2022/09/24 03:08:56;;;;;;;13.55;7.80;;;;;;;4.68;78.87;100346.81;1659761;85;27447;-69
2022/09/24 03:11:23;;;;;;;14.70;7.85;;;;;;;4.67;79.00;100343.88;1654638;86;25782;-69
2022/09/24 03:13:50;;;;;;;13.03;8.25;;;;;;;4.66;78.46;100345.73;1660073;85;25401;-70
2022/09/24 03:16:19;;;;;;;15.55;9.20;;;;;;;4.65;78.27;100347.37;1659981;85;25608;-69
2022/09/24 03:18:47;;;;;;;13.40;7.47;;;;;;;4.64;78.89;100345.20;1660134;85;25579;-70
2022/09/24 03:21:17;;;;;;;17.27;8.55;;;;;;;4.61;79.10;100339.03;1658562;85;27427;-69
2022/09/24 03:23:45;;;;;;;12.98;7.70;;;;;;;4.59;78.96;100339.84;1656183;85;25472;-70
2022/09/24 03:26:12;;;;;;;13.62;8.20;;;;;;;4.57;78.92;100350.58;1656598;85;25403;-69
2022/09/24 03:28:39;;;;;;;15.45;8.00;;;;;;;4.53;78.94;100344.95;1644863;85;26287;-69
2022/09/24 03:31:06;;;;;;;11.53;7.67;;;;;;;4.51;78.86;100341.71;1661166;85;25521;-69
2022/09/24 03:33:43;;;;;;;13.10;8.18;;;;;;;4.49;79.02;100343.34;1577652;89;28033;-69
2022/09/24 03:36:23;;;;;;;14.30;7.90;;;;;;;4.47;78.44;100337.97;1599429;88;25459;-69
2022/09/24 03:38:54;;;;;;;14.70;7.97;;;;;;;4.43;78.67;100340.92;1606927;87;25613;-69
2022/09/24 03:41:20;;;;;;;10.40;7.53;;;;;;;4.41;78.71;100337.69;1598097;88;25779;-69
2022/09/24 03:43:48;;;;;;;15.35;8.50;;;;;;;4.37;79.01;100336.08;1606832;88;25683;-69
2022/09/24 03:46:16;;;;;;;15.00;7.80;;;;;;;4.33;78.62;100333.67;1598205;89;27547;-69
2022/09/24 03:48:43;;;;;;;13.62;9.20;;;;;;;4.32;78.82;100344.65;1606783;87;25837;-69
2022/09/24 03:51:13;;;;;;;14.25;9.10;;;;;;;4.30;78.81;100344.37;1598164;88;25681;-69
2022/09/24 03:53:40;;;;;;;14.98;9.28;;;;;;;4.27;78.67;100343.58;1606824;87;26323;-69
2022/09/24 03:56:08;;;;;;;16.55;9.08;;;;;;;4.26;78.48;100339.83;1598146;88;25480;-69
2022/09/24 03:58:37;;;;;;;12.18;8.18;;;;;;;4.23;78.70;100342.48;1582161;89;27540;-69
2022/09/24 04:01:06;;;;;;;12.53;8.38;;;;;;;4.21;78.96;100336.60;1606859;87;25759;-69
2022/09/24 04:03:34;;;;;;;17.03;9.17;;;;;;;4.21;79.14;100340.62;1592855;88;25784;-70
2022/09/24 04:06:01;;;;;;;14.73;8.55;;;;;;;4.19;78.70;100343.27;1621856;86;25861;-69
2022/09/24 04:08:28;;;;;;;17.32;9.63;;;;;;;4.19;79.32;100347.29;1611841;87;25607;-69
2022/09/24 04:10:54;;;;;;;17.35;8.88;;;;;;;4.17;79.60;100341.41;1598074;88;27436;-69
2022/09/24 04:13:21;;;;;;;15.15;10.00;;;;;;;4.16;79.81;100340.61;1606762;87;25847;-69
2022/09/24 04:15:50;;;;;;;16.97;10.50;;;;;;;4.18;79.98;100342.48;1598155;88;25680;-69
2022/09/24 04:18:17;;;;;;;16.12;10.18;;;;;;;4.17;79.87;100343.56;1606771;87;25824;-70
2022/09/24 04:20:45;;;;;;;17.90;10.13;;;;;;;4.19;79.96;100342.77;1598179;88;25715;-69
2022/09/24 04:23:12;;;;;;;17.35;10.85;;;;;;;4.19;79.83;100344.10;1625707;86;27388;-70
2022/09/24 04:25:39;;;;;;;19.30;10.70;;;;;;;4.18;80.19;100331.77;1604939;87;25665;-68
2022/09/24 04:28:08;;;;;;;16.48;10.65;;;;;;;4.25;80.57;100341.68;1605062;88;25500;-70
2022/09/24 04:30:35;;;;;;;20.32;11.12;;;;;;;4.29;80.70;100349.47;1603454;87;25679;-70
2022/09/24 04:33:02;;;;;;;18.23;9.93;;;;;;;4.33;80.75;100347.06;1593431;88;25733;-70
2022/09/24 04:35:31;;;;;;;17.67;10.32;;;;;;;4.36;80.59;100345.20;1593427;88;27420;-70
2022/09/24 04:37:59;;;;;;;16.35;9.93;;;;;;;4.41;80.73;100341.70;1593444;88;25711;-70
2022/09/24 04:40:26;;;;;;;16.77;10.63;;;;;;;4.43;80.71;100347.08;1593408;88;25516;-70
2022/09/24 04:42:53;;;;;;;19.40;10.35;;;;;;;4.46;80.71;100345.72;1593384;88;25723;-69
2022/09/24 04:45:23;;;;;;;17.07;10.65;;;;;;;4.49;80.94;100348.70;1593466;88;25666;-69
2022/09/24 04:47:51;;;;;;;;;;;;;;;4.53;81.20;100345.46;1595700;88;27424;-69
2022/09/24 04:50:19;;;;;;;17.45;10.45;;;;;;;4.58;81.57;100354.33;1593402;88;25488;-69
2022/09/24 04:52:46;;;;;;;18.87;11.43;;;;;;;4.62;81.66;100347.90;1593473;88;25503;-69
2022/09/24 04:55:12;;;;;;;19.05;11.63;;;;;;;4.66;81.59;100349.75;1593470;88;25697;-69
2022/09/24 04:57:40;;;;;;;20.23;10.53;;;;;;;4.66;81.69;100345.73;1593453;88;25500;-69
2022/09/24 05:00:13;;;;;;;17.15;11.48;;;;;;;4.74;81.57;100353.78;1588053;88;27345;-69
2022/09/24 05:02:40;;;;;;;19.37;11.30;;;;;;;4.78;81.71;100356.19;1576020;89;25591;-69
2022/09/24 05:05:08;;;;;;;17.35;11.57;;;;;;;4.82;81.71;100353.80;1576365;89;25428;-70
2022/09/24 05:07:34;;;;;;;19.35;11.63;;;;;;;4.84;81.58;100352.44;1546975;90;25635;-68
2022/09/24 05:10:01;;;;;;;20.32;12.43;;;;;;;4.89;81.55;100350.81;1552057;90;25644;-69
2022/09/24 05:12:29;;;;;;;20.02;11.80;;;;;;;4.91;81.64;100356.19;1600956;87;27371;-69
2022/09/24 05:14:56;;;;;;;23.83;13.65;;;;;;;4.95;81.97;100357.25;1603860;89;25635;-69
2022/09/24 05:17:24;;;;;;;21.30;13.90;;;;;;;5.00;82.22;100356.45;1606883;87;25499;-69
2022/09/24 05:19:50;;;;;;;21.95;13.22;;;;;;;5.05;82.56;100353.77;1606740;88;25628;-69
2022/09/24 05:22:17;;;;;;;19.87;12.18;;;;;;;5.11;82.74;100359.91;1606765;88;25600;-70
2022/09/24 05:24:43;;;;;;;24.43;14.13;;;;;;;5.17;82.66;100364.20;1606722;87;27358;-69
2022/09/24 05:27:10;;;;;;;22.45;12.88;;;;;;;5.22;82.77;100363.65;1606704;88;25637;-71
2022/09/24 05:29:42;;;;;;;20.35;13.35;;;;;;;5.29;82.99;100361.23;1606767;87;25500;-70
2022/09/24 05:32:16;;;;;;;21.60;13.45;;;;;;;5.35;83.01;100364.98;1606240;88;26268;-70
2022/09/24 05:34:45;;;;;;;23.30;15.08;;;;;;;5.40;82.97;100355.58;1606148;87;25430;-69
2022/09/24 05:37:14;;;;;;;27.42;16.05;;;;;;;5.49;83.28;100363.06;1606345;87;27351;-69
2022/09/24 05:39:40;;;;;;;25.70;16.30;;;;;;;5.55;83.50;100360.61;1606082;87;26093;-69
2022/09/24 05:42:12;;;;;;;30.92;18.80;;;;;;;5.65;83.91;100357.10;1606039;87;25703;-69
2022/09/24 05:44:39;;;;;;;33.95;18.73;;;;;;;5.73;84.08;100353.85;1606089;88;26257;-69
2022/09/24 05:47:06;;;;;;;33.65;19.42;;;;;;;5.85;84.33;100346.28;1606124;88;25583;-69
2022/09/24 05:49:32;;;;;;;32.63;20.30;;;;;;;5.95;84.34;100352.14;1606089;89;27342;-69
2022/09/24 05:51:59;;;;;;;36.17;19.37;;;;;;;6.05;84.48;100356.70;1606050;87;25489;-69
2022/09/24 05:54:25;;;;;;;31.73;18.32;;;;;;;6.14;84.51;100358.50;1606164;88;25621;-69
2022/09/24 05:56:52;;;;;;;31.80;19.52;;;;;;;6.21;84.60;100355.52;1606055;87;27795;-70
2022/09/24 05:59:19;;;;;;;32.28;20.10;;;;;;;6.32;84.74;100359.75;1606080;87;25464;-69
2022/09/24 06:01:46;;;;;;;39.90;22.93;;;;;;;6.43;84.61;100366.40;1606101;87;27378;-70
2022/09/24 06:04:13;;;;;;;45.92;28.83;;;;;;;6.51;84.47;100362.58;1606007;88;25430;-70
2022/09/24 06:06:40;;;;;;;51.10;31.20;;;;;;;6.59;84.20;100367.08;1606146;87;25469;-70
2022/09/24 06:09:08;;;;;;;42.98;26.80;;;;;;;6.68;84.66;100365.42;1606095;87;25786;-70
2022/09/24 06:11:35;;;;;;;36.75;23.57;;;;;;;6.80;84.80;100373.92;1606096;87;25586;-70
2022/09/24 06:14:03;;;;;;;38.75;23.00;;;;;;;6.89;84.59;100378.14;1606063;87;27443;-70
2022/09/24 06:16:33;;;;;;;38.45;23.25;;;;;;;6.97;84.30;100375.41;1606059;87;25588;-70
2022/09/24 06:18:59;;;;;;;;;;;;;;;7.06;84.87;100375.04;1608478;88;25617;-70
2022/09/24 06:21:26;;;;;;;40.33;21.52;;;;;;;7.19;85.12;100374.38;1606110;87;25620;-70
2022/09/24 06:23:53;;;;;;;38.17;21.93;;;;;;;7.30;85.13;100375.07;1606110;88;25660;-70
2022/09/24 06:26:20;;;;;;;33.42;21.15;;;;;;;7.41;85.11;100381.97;1606117;87;27531;-70
2022/09/24 06:28:47;;;;;;;39.30;22.67;;;;;;;7.52;84.87;100377.27;1605974;88;25459;-70
2022/09/24 06:31:13;;;;;;;34.40;22.22;;;;;;;7.62;84.70;100386.57;1605817;87;25809;-70
2022/09/24 06:33:41;;;;;;;34.58;21.85;;;;;;;7.68;84.44;100381.95;1606140;88;25799;-70
2022/09/24 06:36:09;;;;;;;37.10;22.37;;;;;;;7.74;84.15;100382.13;1606077;87;25468;-68
2022/09/24 06:38:35;;;;;;;33.90;21.33;;;;;;;7.84;84.34;100386.05;1606090;87;27400;-69
2022/09/24 06:41:05;;;;;;;32.75;20.97;;;;;;;7.92;84.47;100371.16;1606043;87;25846;-69
2022/09/24 06:43:32;;;;;;;39.60;21.52;;;;;;;8.03;85.00;100379.34;1605973;88;32455;-69
2022/09/24 06:46:00;;;;;;;31.77;20.97;;;;;;;8.18;84.41;100376.99;1655430;85;25728;-70
2022/09/24 06:48:31;;;;;;;30.12;20.72;;;;;;;8.28;84.55;100377.41;1660182;85;33002;-70
2022/09/24 06:50:58;;;;;;;33.13;19.62;;;;;;;8.37;84.51;100374.30;1660195;85;26974;-70
2022/09/24 06:53:25;;;;;;;40.43;23.30;;;;;;;8.65;86.06;100373.65;1659978;85;25562;-69
2022/09/24 06:55:53;;;;;;;41.18;25.40;;;;;;;8.97;87.36;100371.51;1660067;85;25639;-69
2022/09/24 06:58:21;;;;;;;40.98;23.95;;;;;;;9.25;86.23;100382.38;1660157;85;25594;-68
2022/09/24 07:00:54;;;;;;;39.45;24.12;;;;;;;9.46;86.09;100384.14;1656682;85;25673;-70
2022/09/24 07:03:21;;;;;;;43.45;24.95;;;;;;;9.71;86.17;100378.80;1659416;86;28068;-69
2022/09/24 07:05:48;;;;;;;39.45;27.22;;;;;;;9.95;85.71;100383.98;1658695;85;25566;-70
2022/09/24 07:08:16;;;;;;;35.95;24.30;;;;;;;10.19;84.49;100383.73;1660084;85;25555;-69
2022/09/24 07:10:45;;;;;;;32.67;21.73;;;;;;;10.49;85.31;100386.08;1658726;85;25670;-69
2022/09/24 07:13:14;;;;;;;30.50;20.55;;;;;;;10.78;83.77;100382.98;1659553;85;25634;-69
2022/09/24 07:15:41;;;;;;;31.68;20.17;;;;;;;11.02;83.92;100379.38;1658756;86;27312;-69
2022/09/24 07:18:10;;;;;;;31.37;21.02;;;;;;;11.24;82.37;100389.13;1656496;86;25587;-69
2022/09/24 07:20:38;;;;;;;35.08;20.62;;;;;;;11.47;82.10;100386.61;1659228;85;25639;-69
2022/09/24 07:23:06;;;;;;;31.20;20.40;;;;;;;11.75;82.41;100389.13;1656307;85;26221;-69
2022/09/24 07:25:34;;;;;;;32.80;20.87;;;;;;;12.09;82.09;100387.07;1660230;85;25712;-69
2022/09/24 07:28:08;;;;;;;33.55;20.80;;;;;;;12.43;81.60;100386.87;1659806;85;27324;-69
2022/09/24 07:30:38;;;;;;;32.45;19.48;;;;;;;12.68;80.67;100381.20;1635282;86;25950;-69
2022/09/24 07:33:06;;;;;;;29.10;18.73;;;;;;;12.95;79.21;100378.44;1662733;84;25666;-69
2022/09/24 07:35:38;;;;;;;33.18;19.35;;;;;;;13.24;78.78;100385.29;1659733;84;25682;-69
2022/09/24 07:38:10;;;;;;;27.45;17.32;;;;;;;13.57;78.30;100386.09;1682472;84;25396;-69
2022/09/24 07:40:38;;;;;;;28.98;16.82;;;;;;;13.91;77.04;100387.05;1598078;88;28097;-69
2022/09/24 07:43:05;;;;;;;26.05;16.27;;;;;;;14.31;76.12;100389.33;1613240;87;25449;-70
2022/09/24 07:45:32;;;;;;;26.07;16.00;;;;;;;14.73;75.45;100395.36;1612337;87;25514;-70
2022/09/24 07:48:03;;;;;;;22.80;14.75;;;;;;;15.13;73.84;100390.13;1620464;88;25754;-70
2022/09/24 07:50:32;;;;;;;20.75;13.50;;;;;;;15.47;71.99;100386.77;1593307;87;25473;-69
2022/09/24 07:53:01;;;;;;;18.07;12.75;;;;;;;15.97;72.29;100396.34;1618539;86;27352;-69
2022/09/24 07:55:27;;;;;;;47.73;26.40;;;;;;;16.40;70.30;100395.70;1609996;86;25503;-70
2022/09/24 07:57:56;;;;;;;21.25;13.68;;;;;;;16.72;68.54;100393.64;1602227;86;25721;-70
2022/09/24 08:00:24;;;;;;;16.12;10.70;;;;;;;17.01;67.81;100391.71;1617811;86;25795;-69
2022/09/24 08:02:52;;;;;;;20.00;12.78;;;;;;;17.55;67.33;100388.39;1613044;86;25489;-70
2022/09/24 08:05:19;;;;;;;21.07;11.10;;;;;;;17.94;65.67;100387.19;1610233;87;28335;-68
2022/09/24 08:07:56;;;;;;;18.50;11.68;;;;;;;18.10;63.73;100389.91;1618669;86;25598;-69
2022/09/24 08:10:26;;;;;;;17.90;11.05;;;;;;;18.11;62.93;100393.63;1610102;86;25516;-70
2022/09/24 08:12:52;;;;;;;;;;;;;;;18.19;61.81;100385.00;1621001;86;25736;-68
2022/09/24 08:15:21;;;;;;;14.00;9.93;;;;;;;18.16;60.40;100389.03;1615837;86;25493;-70
2022/09/24 08:17:48;;;;;;;12.80;9.60;;;;;;;18.18;60.22;100390.25;1615256;86;27343;-69
2022/09/24 08:20:15;;;;;;;16.00;9.48;;;;;;;18.16;59.55;100389.82;1615824;86;26041;-70
2022/09/24 08:22:41;;;;;;;14.18;9.88;;;;;;;18.06;59.25;100392.53;1621229;86;25418;-70
2022/09/24 08:25:10;;;;;;;14.25;10.43;;;;;;;18.11;59.12;100389.52;1619488;86;25728;-70
2022/09/24 08:27:37;;;;;;;16.15;10.08;;;;;;;18.23;58.85;100387.81;1623016;86;25755;-70
2022/09/24 08:30:05;;;;;;;13.98;8.90;;;;;;;18.42;59.28;100389.22;1636366;86;27322;-69
2022/09/24 08:32:32;;;;;;;14.73;10.30;;;;;;;18.64;58.56;100386.89;1634949;86;25791;-69
2022/09/24 08:35:01;;;;;;;15.88;9.05;;;;;;;18.74;57.80;100393.73;1629320;87;26426;-72
2022/09/24 08:37:28;;;;;;;13.85;9.78;;;;;;;18.78;57.71;100387.73;1626449;86;25637;-72
2022/09/24 08:39:56;;;;;;;28.55;18.82;;;;;;;18.90;57.60;100391.74;1610707;87;25745;-72
2022/09/24 08:42:52;;;;;;;15.13;9.78;;;;;;;19.14;57.93;100390.61;1581796;88;31658;-70
2022/09/24 08:48:20;;;;;;;16.15;11.30;;;;;;;19.84;56.79;100390.00;1532144;93;26077;-68
2022/09/24 08:51:00;;;;;;;12.63;7.45;;;;;;;20.10;55.54;100387.02;1531947;92;25822;-68
2022/09/24 08:53:34;;;;;;;6.10;5.17;;;;;;;20.39;54.97;100390.15;1532100;93;25747;-71
2022/09/24 08:56:04;;;;;;;4.17;2.22;;;;;;;20.73;53.60;100388.22;1531516;92;27925;-72
2022/09/24 08:58:53;;;;;;;4.47;2.42;;;;;;;21.00;52.32;100391.65;1532086;92;25955;-70
2022/09/24 09:01:23;;;;;;;7.10;3.90;;;;;;;;;;1531971;92;30164;-72
2022/09/24 09:04:14;;;;;;;5.40;3.65;;;;;;;21.41;51.16;100394.97;1531892;92;26257;-72
2022/09/24 09:07:13;;;;;;;7.10;5.10;;;;;;;21.80;51.17;100380.74;1538351;92;25813;-73
2022/09/24 09:09:56;;;;;;;5.03;4.28;;;;;;;22.28;50.16;100377.09;1532251;92;27367;-71
2022/09/24 09:12:47;;;;;;;5.42;3.80;;;;;;;22.75;49.59;100384.95;1531778;92;25772;-72
2022/09/24 09:15:35;;;;;;;4.05;3.33;;;;;;;23.22;48.35;100377.55;1531937;92;25739;-73
2022/09/24 09:18:15;;;;;;;4.37;3.37;;;;;;;23.50;46.82;100383.67;1513024;93;26404;-74
2022/09/24 09:20:45;;;;;;;4.85;3.60;;;;;;;24.02;45.97;100383.24;1559085;89;26264;-72
2022/09/24 09:23:19;;;;;;;5.92;3.35;;;;;;;24.36;45.56;100379.16;1550236;91;27360;-71
2022/09/24 09:25:55;;;;;;;6.97;3.40;;;;;;;24.71;44.39;100382.98;1566867;89;25824;-77
2022/09/24 09:28:24;;;;;;;3.77;2.90;;;;;;;24.89;43.00;100378.72;1567802;89;25753;-72
2022/09/24 09:31:34;;;;;;;4.08;3.02;;;;;;;25.15;42.18;100382.91;1558044;90;34808;-73
2022/09/24 09:34:33;;;;;;;5.08;2.50;;;;;;;25.22;41.22;100377.91;1569261;89;25600;-70
2022/09/24 09:37:28;;;;;;;5.78;2.55;;;;;;;25.54;41.30;100376.29;1626131;86;27334;-68
2022/09/24 09:40:04;;;;;;;3.87;2.72;;;;;;;25.61;38.58;100376.80;1641982;86;25890;-67
2022/09/24 09:42:38;;;;;;;2.75;2.40;;;;;;;25.60;39.10;100373.85;1643122;85;25683;-68
2022/09/24 09:45:36;;;;;;;3.70;2.60;;;;;;;25.81;39.16;100375.04;1654246;84;25792;-69
2022/09/24 09:48:05;;;;;;;5.20;3.40;;;;;;;26.12;39.12;100370.16;1657452;85;25802;-69
2022/09/24 09:50:49;;;;;;;3.93;2.60;;;;;;;26.39;38.69;100361.91;1654739;85;28336;-69
2022/09/24 09:53:26;;;;;;;3.50;2.75;;;;;;;26.36;37.60;100366.31;1625872;87;25730;-69
2022/09/24 09:56:03;;;;;;;4.67;3.22;;;;;;;26.35;37.52;100364.73;1620315;87;25652;-70
2022/09/24 09:58:35;;;;;;;3.35;3.00;;;;;;;25.93;36.46;100376.47;1664894;84;25812;-69
2022/09/24 10:01:09;;;;;;;9.00;6.55;;;;;;;25.60;36.76;100371.08;1658446;84;25718;-68
2022/09/24 10:03:49;;;;;;;6.90;3.65;;;;;;;25.39;36.99;100372.85;1655315;84;26687;-69
2022/09/24 10:06:32;;;;;;;4.12;3.05;;;;;;;25.47;37.42;100366.06;1646605;84;26326;-68
2022/09/24 10:09:21;;;;;;;5.30;2.67;;;;;;;25.59;36.63;100364.77;1680310;85;26286;-67
2022/09/24 10:11:48;;;;;;;6.72;2.50;;;;;;;25.68;36.38;100362.29;1673120;85;25372;-66
2022/09/24 10:14:21;;;;;;;4.83;2.50;;;;;;;25.66;36.10;100360.53;1683315;85;25555;-66
2022/09/24 10:16:50;;;;;;;4.08;3.02;;;;;;;26.08;37.03;100351.61;1675731;85;27950;-65
2022/09/24 10:19:23;;;;;;;4.90;3.27;;;;;;;26.57;35.82;100356.91;1686855;85;25809;-67
2022/09/24 10:21:51;;;;;;;3.85;3.45;;;;;;;26.73;34.63;100351.38;1676995;85;25692;-67
2022/09/24 10:24:23;;;;;;;3.52;3.22;;;;;;;26.34;33.82;100345.73;1681173;85;26291;-66
2022/09/24 10:26:50;;;;;;;6.03;3.60;;;;;;;26.11;33.11;100352.75;1680662;85;25777;-66
2022/09/24 10:32:21;;;;;;;4.05;3.30;;;;;;;26.16;33.82;100345.37;1621084;88;25703;-66
2022/09/24 10:35:05;;;;;;;4.40;4.00;;;;;;;26.16;33.52;100348.75;1651395;86;25662;-66
2022/09/24 10:37:32;;;;;;;4.70;3.98;;;;;;;25.93;33.20;100357.08;1629883;86;26281;-67
2022/09/24 10:40:11;;;;;;;5.58;4.25;;;;;;;25.52;32.72;100351.77;1627876;88;25637;-68
2022/09/24 10:42:38;;;;;;;5.20;4.53;;;;;;;25.09;33.35;100345.78;1614026;87;27344;-67
2022/09/24 10:45:10;;;;;;;5.50;4.45;;;;;;;25.11;34.62;100342.78;1599753;87;25734;-67
2022/09/24 10:48:11;;;;;;;9.55;4.55;;;;;;;25.54;35.05;100343.84;1634930;87;25635;-67
2022/09/24 10:51:28;;;;;;;4.33;3.65;;;;;;;26.03;35.06;100329.90;1597446;88;26181;-67
2022/09/24 10:54:35;;;;;;;6.65;4.55;;;;;;;26.09;33.73;100335.15;1550239;91;25951;-68
2022/09/24 10:57:18;;;;;;;6.62;3.37;;;;;;;25.68;33.09;100337.36;1549828;91;27278;-65
2022/09/24 10:59:59;;;;;;;2.72;2.52;;;;;;;25.18;32.48;100332.25;1548642;91;25640;-67
2022/09/24 11:03:04;;;;;;;4.50;3.02;;;;;;;24.57;32.30;100329.34;1548942;90;25825;-70
2022/09/24 11:05:41;;;;;;;4.30;2.37;;;;;;;24.07;33.09;100327.38;1551899;90;25830;-68
2022/09/24 11:08:17;;;;;;;4.83;2.40;;;;;;;23.59;33.28;100322.53;1532778;90;25773;-72
2022/09/24 11:11:02;;;;;;;4.08;2.40;;;;;;;23.29;33.77;100333.42;1563558;90;27413;-74
2022/09/24 11:13:45;;;;;;;2.20;2.00;;;;;;;23.04;34.04;100332.61;1561120;90;25774;-71
2022/09/24 11:16:48;;;;;;;5.05;3.12;;;;;;;22.66;35.21;100331.57;1545512;91;25826;-72
2022/09/24 11:19:24;;;;;;;3.80;3.45;;;;;;;22.32;35.91;100323.59;1558887;90;25837;-72
2022/09/24 11:22:15;;;;;;;6.75;4.33;;;;;;;22.02;36.91;100330.72;1560095;90;25783;-73
2022/09/24 11:25:16;;;;;;;7.55;6.72;;;;;;;21.79;36.87;100324.09;1564772;90;27855;-73
2022/09/24 11:28:15;;;;;;;2.75;2.50;;;;;;;22.05;38.13;100319.50;1517700;93;26502;-73
2022/09/24 11:31:12;;;;;;;3.45;2.40;;;;;;;22.49;37.23;100320.70;1521333;92;25640;-73
2022/09/24 11:34:06;;;;;;;3.65;2.50;;;;;;;22.90;37.01;100320.95;1465655;96;26677;-73
2022/09/24 11:37:08;;;;;;;8.23;6.08;;;;;;;23.13;37.15;100322.77;1468183;97;25839;-72
2022/09/24 11:40:05;;;;;;;4.22;3.42;;;;;;;23.44;37.47;100320.38;1464451;97;28377;-70
2022/09/24 11:42:43;;;;;;;3.75;3.05;;;;;;;23.89;36.78;100314.99;1406700;97;25878;-71
2022/09/24 11:45:52;;;;;;;4.83;3.17;;;;;;;24.28;36.38;100320.38;1414209;99;26585;-70
2022/09/24 11:49:00;;;;;;;3.02;2.58;;;;;;;24.67;35.44;100315.84;1427679;99;25895;-69
2022/09/24 11:52:10;;;;;;;5.00;2.57;;;;;;;24.70;34.52;100317.19;1399441;100;25569;-70
2022/09/24 11:54:50;;;;;;;4.75;2.87;;;;;;;24.73;33.97;100319.76;1364814;104;27492;-69
2022/09/24 11:57:21;;;;;;;63.45;13.32;;;;;;;24.69;33.84;100310.69;1371632;104;25795;-70
2022/09/24 12:00:07;;;;;;;5.78;3.00;;;;;;;24.72;33.43;100305.16;1397774;102;25832;-70